createdAt,value
2023-04-21T00:00:09.498Z,0.00
2023-04-21T00:01:09.486Z,0.00
2023-04-21T00:02:09.581Z,0.00
2023-04-21T00:03:09.514Z,0.00
2023-04-21T00:04:09.562Z,0.00
2023-04-21T00:05:09.672Z,0.00
2023-04-21T00:06:09.462Z,0.00
2023-04-21T00:07:09.400Z,0.00
2023-04-21T00:08:09.405Z,0.00
2023-04-21T00:09:09.369Z,0.00
2023-04-21T00:10:09.360Z,0.00
2023-04-21T00:11:09.354Z,0.00
2023-04-21T00:12:09.339Z,0.00
2023-04-21T00:13:09.330Z,0.00
2023-04-21T00:14:09.307Z,0.00
2023-04-21T00:15:09.290Z,0.00
2023-04-21T00:16:09.329Z,0.00
2023-04-21T00:17:09.272Z,0.00
2023-04-21T00:18:09.304Z,0.00
2023-04-21T00:19:09.243Z,0.00
2023-04-21T00:20:09.222Z,0.00
2023-04-21T00:21:09.204Z,0.00
2023-04-21T00:22:09.194Z,0.00
2023-04-21T00:23:09.178Z,0.00
2023-04-21T00:24:09.284Z,0.00
2023-04-21T00:25:09.171Z,0.00
2023-04-21T00:26:09.144Z,0.00
2023-04-21T00:27:09.123Z,0.00
2023-04-21T00:28:09.113Z,0.00
2023-04-21T00:29:09.104Z,0.00
2023-04-21T00:30:09.092Z,0.00
2023-04-21T00:31:09.136Z,0.00
2023-04-21T00:32:09.056Z,0.00
2023-04-21T00:33:09.043Z,0.00
2023-04-21T00:34:09.034Z,0.00
2023-04-21T00:35:09.318Z,0.00
2023-04-21T00:36:08.997Z,0.00
2023-04-21T00:37:08.986Z,0.00
2023-04-21T00:38:08.975Z,0.00
2023-04-21T00:39:08.957Z,0.00
2023-04-21T00:40:09.296Z,0.00
2023-04-21T00:41:08.933Z,0.00
2023-04-21T00:42:08.952Z,0.00
2023-04-21T00:43:08.917Z,0.00
2023-04-21T00:44:08.913Z,0.00
2023-04-21T00:45:08.880Z,0.00
2023-04-21T00:46:08.882Z,0.00
2023-04-21T00:47:08.923Z,0.00
2023-04-21T00:48:08.994Z,0.00
2023-04-21T00:49:08.834Z,0.00
2023-04-21T00:50:08.830Z,0.00
2023-04-21T00:51:08.797Z,0.00
2023-04-21T00:52:08.800Z,0.00
2023-04-21T00:53:08.777Z,0.00
2023-04-21T00:54:08.772Z,0.00
2023-04-21T00:55:08.758Z,0.00
2023-04-21T00:56:08.772Z,0.00
2023-04-21T00:57:08.723Z,0.00
2023-04-21T00:58:08.707Z,0.00
2023-04-21T00:59:08.692Z,0.00
2023-04-21T01:00:08.676Z,0.00
2023-04-21T01:01:08.695Z,0.00
2023-04-21T01:02:08.687Z,0.00
2023-04-21T01:03:08.780Z,0.00
2023-04-21T01:04:08.918Z,0.00
2023-04-21T01:05:08.610Z,0.00
2023-04-21T01:06:08.601Z,0.00
2023-04-21T01:07:08.785Z,0.00
2023-04-21T01:08:08.583Z,0.00
2023-04-21T01:09:08.567Z,0.00
2023-04-21T01:10:08.556Z,0.00
2023-04-21T01:11:08.535Z,0.00
2023-04-21T01:12:08.546Z,0.00
2023-04-21T01:13:08.513Z,0.00
2023-04-21T01:14:08.498Z,0.00
2023-04-21T01:15:08.482Z,0.00
2023-04-21T01:16:08.495Z,0.00
2023-04-21T01:17:08.456Z,0.00
2023-04-21T01:18:08.500Z,0.00
2023-04-21T01:19:08.430Z,0.00
2023-04-21T01:20:08.419Z,0.00
2023-04-21T01:21:08.392Z,0.00
2023-04-21T01:22:08.395Z,0.00
2023-04-21T01:23:08.372Z,0.00
2023-04-21T01:24:08.361Z,0.00
2023-04-21T01:25:08.352Z,0.00
2023-04-21T01:26:08.334Z,0.00
2023-04-21T01:27:08.527Z,0.00
2023-04-21T01:28:08.373Z,0.00
2023-04-21T01:29:08.491Z,0.00
2023-04-21T01:30:08.597Z,0.00
2023-04-21T01:31:08.262Z,0.00
2023-04-21T01:32:08.305Z,0.00
2023-04-21T01:33:08.259Z,0.00
2023-04-21T01:34:08.221Z,0.00
2023-04-21T01:35:08.256Z,0.00
2023-04-21T01:36:08.344Z,0.00
2023-04-21T01:37:08.179Z,0.00
2023-04-21T01:38:08.167Z,0.00
2023-04-21T01:39:08.152Z,0.00
2023-04-21T01:40:08.143Z,0.00
2023-04-21T01:41:08.131Z,0.00
2023-04-21T01:42:08.117Z,0.00
2023-04-21T01:43:08.099Z,0.00
2023-04-21T01:44:08.461Z,0.00
2023-04-21T01:45:08.474Z,0.00
2023-04-21T01:46:08.227Z,0.00
2023-04-21T01:47:08.193Z,0.00
2023-04-21T01:48:08.218Z,0.00
2023-04-21T01:49:08.223Z,0.00
2023-04-21T01:50:08.177Z,0.00
2023-04-21T01:51:08.143Z,0.00
2023-04-21T01:52:07.981Z,0.00
2023-04-21T01:53:07.972Z,0.00
2023-04-21T01:54:08.000Z,0.00
2023-04-21T01:55:08.094Z,0.00
2023-04-21T01:56:08.124Z,0.00
2023-04-21T01:57:07.998Z,0.00
2023-04-21T01:58:07.897Z,0.00
2023-04-21T01:59:07.882Z,0.00
2023-04-21T02:00:07.904Z,0.00
2023-04-21T02:01:08.283Z,0.00
2023-04-21T02:02:08.268Z,0.00
2023-04-21T02:03:07.983Z,0.00
2023-04-21T02:05:07.814Z,0.00
2023-04-21T02:06:07.800Z,0.00
2023-04-21T02:07:08.139Z,0.00
2023-04-21T02:08:08.065Z,0.00
2023-04-21T02:09:07.752Z,0.00
2023-04-21T02:10:07.750Z,0.00
2023-04-21T02:11:07.722Z,0.00
2023-04-21T02:12:07.711Z,0.00
2023-04-21T02:13:07.704Z,0.00
2023-04-21T02:14:07.684Z,0.00
2023-04-21T02:15:07.686Z,0.00
2023-04-21T02:16:13.357Z,0.00
2023-04-21T02:17:08.674Z,0.00
2023-04-21T02:18:07.682Z,0.00
2023-04-21T02:19:07.618Z,0.00
2023-04-21T02:20:07.612Z,0.00
2023-04-21T02:21:07.598Z,0.00
2023-04-21T02:22:07.575Z,0.00
2023-04-21T02:23:07.563Z,0.00
2023-04-21T02:24:07.547Z,0.00
2023-04-21T02:25:07.533Z,0.00
2023-04-21T02:26:07.515Z,0.00
2023-04-21T02:27:07.506Z,0.00
2023-04-21T02:28:07.493Z,0.00
2023-04-21T02:29:07.482Z,0.00
2023-04-21T02:30:07.467Z,0.00
2023-04-21T02:31:07.516Z,0.00
2023-04-21T02:33:07.542Z,0.00
2023-04-21T02:34:07.418Z,0.00
2023-04-21T02:35:07.398Z,0.00
2023-04-21T02:36:07.419Z,0.00
2023-04-21T02:37:07.392Z,0.00
2023-04-21T02:38:07.362Z,0.00
2023-04-21T02:39:07.335Z,0.00
2023-04-21T02:40:07.365Z,0.00
2023-04-21T02:41:07.327Z,0.00
2023-04-21T02:42:07.306Z,0.00
2023-04-21T02:43:07.292Z,0.00
2023-04-21T02:44:07.266Z,0.00
2023-04-21T02:45:07.256Z,0.00
2023-04-21T02:46:07.364Z,0.00
2023-04-21T02:47:07.233Z,0.00
2023-04-21T02:48:07.320Z,0.00
2023-04-21T02:49:07.205Z,0.00
2023-04-21T02:50:07.202Z,0.00
2023-04-21T02:51:07.209Z,0.00
2023-04-21T02:52:07.157Z,0.00
2023-04-21T02:53:07.247Z,0.00
2023-04-21T02:54:07.139Z,0.00
2023-04-21T02:55:07.248Z,0.00
2023-04-21T02:56:07.114Z,0.00
2023-04-21T02:57:07.094Z,0.00
2023-04-21T02:58:07.142Z,0.00
2023-04-21T02:59:07.075Z,0.00
2023-04-21T03:00:07.065Z,0.00
2023-04-21T03:01:07.113Z,0.00
2023-04-21T03:02:07.192Z,0.00
2023-04-21T03:03:07.137Z,0.00
2023-04-21T03:04:07.175Z,0.00
2023-04-21T03:05:07.289Z,0.00
2023-04-21T03:06:06.976Z,0.00
2023-04-21T03:07:07.010Z,0.00
2023-04-21T03:08:06.954Z,0.00
2023-04-21T03:09:06.932Z,0.00
2023-04-21T03:10:07.219Z,0.00
2023-04-21T03:11:06.908Z,0.00
2023-04-21T03:12:06.901Z,0.00
2023-04-21T03:13:06.883Z,0.00
2023-04-21T03:14:06.859Z,0.00
2023-04-21T03:15:06.853Z,0.00
2023-04-21T03:16:06.994Z,0.00
2023-04-21T03:17:06.828Z,0.00
2023-04-21T03:18:06.927Z,0.00
2023-04-21T03:19:06.805Z,0.00
2023-04-21T03:20:06.811Z,0.00
2023-04-21T03:21:06.775Z,0.00
2023-04-21T03:22:06.772Z,0.00
2023-04-21T03:23:06.742Z,0.00
2023-04-21T03:24:06.726Z,0.00
2023-04-21T03:25:06.719Z,0.00
2023-04-21T03:26:06.704Z,0.00
2023-04-21T03:27:06.682Z,0.00
2023-04-21T03:28:06.708Z,0.00
2023-04-21T03:29:06.669Z,0.00
2023-04-21T03:30:06.668Z,0.00
2023-04-21T03:31:06.642Z,0.00
2023-04-21T03:32:06.682Z,0.00
2023-04-21T03:33:06.640Z,0.00
2023-04-21T03:34:06.593Z,0.00
2023-04-21T03:35:06.582Z,0.00
2023-04-21T03:36:06.625Z,0.00
2023-04-21T03:37:06.558Z,0.00
2023-04-21T03:38:06.547Z,0.00
2023-04-21T03:39:20.440Z,0.00
2023-04-21T03:40:07.538Z,0.00
2023-04-21T03:41:06.499Z,0.00
2023-04-21T03:42:06.482Z,0.00
2023-04-21T03:43:06.478Z,0.00
2023-04-21T03:44:06.455Z,0.00
2023-04-21T03:45:06.453Z,0.00
2023-04-21T03:46:06.450Z,0.00
2023-04-21T03:47:06.414Z,0.00
2023-04-21T03:48:06.446Z,0.00
2023-04-21T03:49:06.393Z,0.00
2023-04-21T03:50:06.385Z,0.00
2023-04-21T03:51:06.374Z,0.00
2023-04-21T03:52:06.371Z,0.00
2023-04-21T03:53:06.334Z,0.00
2023-04-21T03:54:06.320Z,0.00
2023-04-21T03:55:06.314Z,0.00
2023-04-21T03:56:06.310Z,0.00
2023-04-21T03:57:06.280Z,0.00
2023-04-21T03:58:06.275Z,0.00
2023-04-21T03:59:06.258Z,0.00
2023-04-21T04:00:06.242Z,0.00
2023-04-21T04:01:06.239Z,0.00
2023-04-21T04:02:06.280Z,0.00
2023-04-21T04:03:06.375Z,0.00
2023-04-21T04:04:06.497Z,0.00
2023-04-21T04:05:06.229Z,0.00
2023-04-21T04:06:06.157Z,0.00
2023-04-21T04:07:06.155Z,0.00
2023-04-21T04:08:06.153Z,0.00
2023-04-21T04:09:06.118Z,0.00
2023-04-21T04:10:06.101Z,0.00
2023-04-21T04:11:06.092Z,0.00
2023-04-21T04:12:06.080Z,0.00
2023-04-21T04:13:06.074Z,0.00
2023-04-21T04:14:06.054Z,0.00
2023-04-21T04:15:06.038Z,0.00
2023-04-21T04:16:06.067Z,0.00
2023-04-21T04:17:06.013Z,0.00
2023-04-21T04:18:06.031Z,0.00
2023-04-21T04:19:06.013Z,0.00
2023-04-21T04:20:05.966Z,0.00
2023-04-21T04:21:05.953Z,0.00
2023-04-21T04:22:05.939Z,0.00
2023-04-21T04:23:05.924Z,0.00
2023-04-21T04:24:05.940Z,0.00
2023-04-21T04:25:05.907Z,0.00
2023-04-21T04:26:05.915Z,0.00
2023-04-21T04:27:05.875Z,0.00
2023-04-21T04:28:06.367Z,0.00
2023-04-21T04:29:05.842Z,0.00
2023-04-21T04:30:05.849Z,0.00
2023-04-21T04:31:05.831Z,0.00
2023-04-21T04:32:05.845Z,0.00
2023-04-21T04:33:05.869Z,0.00
2023-04-21T04:34:05.772Z,0.00
2023-04-21T04:35:05.767Z,0.00
2023-04-21T04:36:05.782Z,0.00
2023-04-21T04:37:05.744Z,0.00
2023-04-21T04:38:05.726Z,0.00
2023-04-21T04:39:06.816Z,5.62
2023-04-21T04:40:05.729Z,5.62
2023-04-21T04:41:05.681Z,5.62
2023-04-21T04:42:05.677Z,5.62
2023-04-21T04:43:05.654Z,5.62
2023-04-21T04:44:05.648Z,5.62
2023-04-21T04:45:05.627Z,5.62
2023-04-21T04:46:05.616Z,5.62
2023-04-21T04:47:05.613Z,11.25
2023-04-21T04:48:05.592Z,11.25
2023-04-21T04:49:05.580Z,11.25
2023-04-21T04:50:05.565Z,11.25
2023-04-21T04:51:05.550Z,16.88
2023-04-21T04:52:05.543Z,16.88
2023-04-21T04:53:05.528Z,16.88
2023-04-21T04:54:05.509Z,22.50
2023-04-21T04:55:05.497Z,22.50
2023-04-21T04:56:05.504Z,22.50
2023-04-21T04:57:05.493Z,22.50
2023-04-21T04:58:05.451Z,22.50
2023-04-21T04:59:05.440Z,28.12
2023-04-21T05:00:05.542Z,28.12
2023-04-21T05:01:05.412Z,28.12
2023-04-21T05:02:05.464Z,28.12
2023-04-21T05:03:05.513Z,33.75
2023-04-21T05:04:05.585Z,33.75
2023-04-21T05:05:05.574Z,39.38
2023-04-21T05:06:05.353Z,39.38
2023-04-21T05:07:05.343Z,45.00
2023-04-21T05:08:05.329Z,50.62
2023-04-21T05:09:05.304Z,50.62
2023-04-21T05:10:05.301Z,56.25
2023-04-21T05:11:05.305Z,56.25
2023-04-21T05:12:05.320Z,56.25
2023-04-21T05:13:05.290Z,56.25
2023-04-21T05:14:05.273Z,56.25
2023-04-21T05:15:05.252Z,56.25
2023-04-21T05:16:05.258Z,56.25
2023-04-21T05:17:05.289Z,56.25
2023-04-21T05:18:05.273Z,56.25
2023-04-21T05:19:05.190Z,56.25
2023-04-21T05:20:05.171Z,56.25
2023-04-21T05:21:05.175Z,56.25
2023-04-21T05:22:05.166Z,56.25
2023-04-21T05:23:05.123Z,56.25
2023-04-21T05:24:05.113Z,56.25
2023-04-21T05:25:05.097Z,56.25
2023-04-21T05:26:05.270Z,56.25
2023-04-21T05:27:05.104Z,56.25
2023-04-21T05:28:05.120Z,56.25
2023-04-21T05:29:05.062Z,56.25
2023-04-21T05:30:05.061Z,50.62
2023-04-21T05:31:05.054Z,50.62
2023-04-21T05:32:05.092Z,45.00
2023-04-21T05:33:05.094Z,45.00
2023-04-21T05:34:05.053Z,45.00
2023-04-21T05:35:05.005Z,39.38
2023-04-21T05:36:04.984Z,39.38
2023-04-21T05:37:04.939Z,45.00
2023-04-21T05:38:04.922Z,45.00
2023-04-21T05:39:04.919Z,50.62
2023-04-21T05:40:04.928Z,56.25
2023-04-21T05:41:04.922Z,61.88
2023-04-21T05:42:04.875Z,61.88
2023-04-21T05:43:04.870Z,67.50
2023-04-21T05:44:04.882Z,67.50
2023-04-21T05:45:04.856Z,61.88
2023-04-21T05:46:04.876Z,56.25
2023-04-21T05:47:04.850Z,56.25
2023-04-21T05:48:04.873Z,56.25
2023-04-21T05:49:04.808Z,56.25
2023-04-21T05:50:04.772Z,61.88
2023-04-21T05:51:04.764Z,73.12
2023-04-21T05:52:04.761Z,78.75
2023-04-21T05:53:04.735Z,78.75
2023-04-21T05:54:04.713Z,84.38
2023-04-21T05:55:04.756Z,84.38
2023-04-21T05:56:04.702Z,78.75
2023-04-21T05:57:04.737Z,78.75
2023-04-21T05:58:04.669Z,78.75
2023-04-21T05:59:04.698Z,84.38
2023-04-21T06:00:04.677Z,84.38
2023-04-21T06:01:04.626Z,90.00
2023-04-21T06:02:04.711Z,90.00
2023-04-21T06:03:04.746Z,84.38
2023-04-21T06:04:04.820Z,78.75
2023-04-21T06:05:04.745Z,78.75
2023-04-21T06:06:04.586Z,78.75
2023-04-21T06:07:04.551Z,84.38
2023-04-21T06:08:04.573Z,95.62
2023-04-21T06:09:04.533Z,106.88
2023-04-21T06:10:04.538Z,112.50
2023-04-21T06:11:04.505Z,118.12
2023-04-21T06:12:04.478Z,118.12
2023-04-21T06:13:04.477Z,112.50
2023-04-21T06:14:04.446Z,106.88
2023-04-21T06:15:04.452Z,95.62
2023-04-21T06:16:04.526Z,90.00
2023-04-21T06:17:04.395Z,84.38
2023-04-21T06:18:04.437Z,78.75
2023-04-21T06:19:04.405Z,78.75
2023-04-21T06:20:04.379Z,78.75
2023-04-21T06:21:04.375Z,78.75
2023-04-21T06:22:04.345Z,84.38
2023-04-21T06:23:04.340Z,84.38
2023-04-21T06:24:04.330Z,90.00
2023-04-21T06:25:04.313Z,90.00
2023-04-21T06:26:04.278Z,84.38
2023-04-21T06:27:04.291Z,78.75
2023-04-21T06:28:04.261Z,78.75
2023-04-21T06:29:04.305Z,151.88
2023-04-21T06:30:04.240Z,202.50
2023-04-21T06:31:06.224Z,225.00
2023-04-21T06:32:04.349Z,258.75
2023-04-21T06:33:04.268Z,241.88
2023-04-21T06:34:04.171Z,219.38
2023-04-21T06:35:04.159Z,219.38
2023-04-21T06:36:04.154Z,253.12
2023-04-21T06:37:04.131Z,225.00
2023-04-21T06:38:04.126Z,191.25
2023-04-21T06:39:04.304Z,213.75
2023-04-21T06:40:04.111Z,241.88
2023-04-21T06:41:04.127Z,213.75
2023-04-21T06:42:04.095Z,247.50
2023-04-21T06:43:04.083Z,191.25
2023-04-21T06:44:04.075Z,151.88
2023-04-21T06:45:04.028Z,157.50
2023-04-21T06:46:04.041Z,135.00
2023-04-21T06:47:04.038Z,230.62
2023-04-21T06:48:04.080Z,258.75
2023-04-21T06:49:03.967Z,371.25
2023-04-21T06:50:03.959Z,399.38
2023-04-21T06:51:03.953Z,371.25
2023-04-21T06:52:03.937Z,348.75
2023-04-21T06:53:03.932Z,337.50
2023-04-21T06:54:03.912Z,393.75
2023-04-21T06:55:03.918Z,309.38
2023-04-21T06:56:03.884Z,331.88
2023-04-21T06:57:03.865Z,281.25
2023-04-21T06:58:03.857Z,298.12
2023-04-21T06:59:03.846Z,275.62
2023-04-21T07:00:03.827Z,258.75
2023-04-21T07:01:03.917Z,247.50
2023-04-21T07:02:03.876Z,180.00
2023-04-21T07:03:03.941Z,326.25
2023-04-21T07:04:03.846Z,360.00
2023-04-21T07:05:03.749Z,286.88
2023-04-21T07:06:03.740Z,309.38
2023-04-21T07:07:03.725Z,247.50
2023-04-21T07:08:03.717Z,174.38
2023-04-21T07:09:03.695Z,191.25
2023-04-21T07:10:03.682Z,309.38
2023-04-21T07:11:03.663Z,309.38
2023-04-21T07:12:03.664Z,315.00
2023-04-21T07:13:03.638Z,365.62
2023-04-21T07:14:03.625Z,343.12
2023-04-21T07:15:03.613Z,241.88
2023-04-21T07:16:03.603Z,270.00
2023-04-21T07:17:03.756Z,247.50
2023-04-21T07:18:03.658Z,264.38
2023-04-21T07:19:03.572Z,331.88
2023-04-21T07:20:03.577Z,365.62
2023-04-21T07:21:03.533Z,376.88
2023-04-21T07:22:03.526Z,331.88
2023-04-21T07:23:03.525Z,298.12
2023-04-21T07:24:03.581Z,371.25
2023-04-21T07:25:03.782Z,399.38
2023-04-21T07:26:03.469Z,388.12
2023-04-21T07:27:03.516Z,382.50
2023-04-21T07:28:03.487Z,393.75
2023-04-21T07:29:03.659Z,416.25
2023-04-21T07:30:03.495Z,421.88
2023-04-21T07:31:03.849Z,410.62
2023-04-21T07:32:03.461Z,393.75
2023-04-21T07:33:03.679Z,382.50
2023-04-21T07:34:03.492Z,393.75
2023-04-21T07:35:03.480Z,416.25
2023-04-21T07:36:03.456Z,433.12
2023-04-21T07:37:03.366Z,438.75
2023-04-21T07:38:03.346Z,461.25
2023-04-21T07:39:03.434Z,478.12
2023-04-21T07:40:03.471Z,478.12
2023-04-21T07:41:03.377Z,466.88
2023-04-21T07:42:03.350Z,466.88
2023-04-21T07:43:03.538Z,472.50
2023-04-21T07:44:03.340Z,511.88
2023-04-21T07:45:03.252Z,551.25
2023-04-21T07:46:03.409Z,585.00
2023-04-21T07:47:03.260Z,607.50
2023-04-21T07:48:03.410Z,590.62
2023-04-21T07:49:04.012Z,596.25
2023-04-21T07:50:03.166Z,624.38
2023-04-21T07:51:03.123Z,641.25
2023-04-21T07:52:03.138Z,703.12
2023-04-21T07:53:03.105Z,686.25
2023-04-21T07:54:03.084Z,624.38
2023-04-21T07:55:03.073Z,607.50
2023-04-21T07:56:03.056Z,658.12
2023-04-21T07:57:03.047Z,720.00
2023-04-21T07:58:03.030Z,781.88
2023-04-21T07:59:03.018Z,950.62
2023-04-21T08:00:03.014Z,1001.25
2023-04-21T08:01:02.984Z,1181.25
2023-04-21T08:02:03.006Z,1136.25
2023-04-21T08:03:03.030Z,1035.00
2023-04-21T08:04:03.075Z,1091.25
2023-04-21T08:05:02.999Z,1018.12
2023-04-21T08:06:03.377Z,1006.88
2023-04-21T08:07:03.109Z,1231.88
2023-04-21T08:08:02.923Z,1260.00
2023-04-21T08:09:02.920Z,1057.50
2023-04-21T08:10:02.867Z,956.25
2023-04-21T08:11:02.885Z,984.38
2023-04-21T08:12:02.838Z,838.12
2023-04-21T08:13:02.827Z,759.38
2023-04-21T08:14:02.804Z,686.25
2023-04-21T08:15:02.799Z,691.88
2023-04-21T08:16:02.797Z,742.50
2023-04-21T08:17:02.805Z,720.00
2023-04-21T08:18:02.801Z,748.12
2023-04-21T08:19:02.783Z,708.75
2023-04-21T08:20:02.735Z,675.00
2023-04-21T08:21:02.740Z,703.12
2023-04-21T08:22:02.706Z,669.38
2023-04-21T08:23:02.739Z,675.00
2023-04-21T08:24:02.743Z,641.25
2023-04-21T08:25:02.692Z,675.00
2023-04-21T08:26:02.645Z,669.38
2023-04-21T08:27:02.643Z,697.50
2023-04-21T08:28:02.628Z,765.00
2023-04-21T08:29:04.571Z,950.62
2023-04-21T08:30:02.588Z,1541.25
2023-04-21T08:31:02.693Z,2126.25
2023-04-21T08:32:02.618Z,2328.75
2023-04-21T08:33:02.695Z,2328.75
2023-04-21T08:34:17.450Z,2103.75
2023-04-21T08:35:03.814Z,1192.50
2023-04-21T08:36:07.433Z,2475.00
2023-04-21T08:37:03.554Z,2508.75
2023-04-21T08:38:02.477Z,2446.88
2023-04-21T08:39:02.521Z,2283.75
2023-04-21T08:40:02.487Z,2216.25
2023-04-21T08:41:02.451Z,2356.88
2023-04-21T08:42:02.533Z,2486.25
2023-04-21T08:43:02.422Z,2643.75
2023-04-21T08:44:02.406Z,2846.25
2023-04-21T08:45:02.394Z,2806.88
2023-04-21T08:46:02.653Z,2716.88
2023-04-21T08:47:02.361Z,2806.88
2023-04-21T08:48:02.382Z,2835.00
2023-04-21T08:49:02.343Z,2390.62
2023-04-21T08:50:02.348Z,2283.75
2023-04-21T08:51:02.305Z,1530.00
2023-04-21T08:52:02.440Z,2165.62
2023-04-21T08:53:02.285Z,2503.12
2023-04-21T08:54:02.573Z,2486.25
2023-04-21T08:55:02.284Z,2531.25
2023-04-21T08:56:10.643Z,2598.75
2023-04-21T08:57:13.979Z,2655.00
2023-04-21T08:58:03.246Z,2745.00
2023-04-21T08:59:02.259Z,2863.12
2023-04-21T09:00:02.188Z,2947.50
2023-04-21T09:01:02.217Z,2964.38
2023-04-21T09:02:02.259Z,2823.75
2023-04-21T09:03:02.753Z,2733.75
2023-04-21T09:04:02.224Z,2784.38
2023-04-21T09:05:02.534Z,2761.88
2023-04-21T09:06:02.629Z,2750.62
2023-04-21T09:07:02.102Z,2851.88
2023-04-21T09:08:02.086Z,2953.12
2023-04-21T09:09:02.076Z,2964.38
2023-04-21T09:10:02.060Z,2846.25
2023-04-21T09:11:02.044Z,2677.50
2023-04-21T09:12:02.054Z,2559.38
2023-04-21T09:13:02.013Z,2621.25
2023-04-21T09:14:01.997Z,2700.00
2023-04-21T09:15:01.987Z,2795.62
2023-04-21T09:16:01.983Z,2812.50
2023-04-21T09:17:02.001Z,2829.38
2023-04-21T09:18:02.054Z,2896.88
2023-04-21T09:19:02.048Z,2880.00
2023-04-21T09:20:01.934Z,2874.38
2023-04-21T09:21:01.914Z,2970.00
2023-04-21T09:22:01.908Z,3054.38
2023-04-21T09:23:01.891Z,3127.50
2023-04-21T09:24:01.871Z,3065.62
2023-04-21T09:25:01.866Z,2970.00
2023-04-21T09:26:01.842Z,2880.00
2023-04-21T09:27:01.835Z,2818.12
2023-04-21T09:28:01.921Z,2863.12
2023-04-21T09:29:01.806Z,2925.00
2023-04-21T09:30:01.795Z,2930.62
2023-04-21T09:31:01.861Z,2885.62
2023-04-21T09:32:01.920Z,2902.50
2023-04-21T09:33:03.262Z,3015.00
2023-04-21T09:34:01.854Z,2941.88
2023-04-21T09:35:01.733Z,2925.00
2023-04-21T09:36:01.726Z,3009.38
2023-04-21T09:37:01.710Z,3026.25
2023-04-21T09:38:01.697Z,3037.50
2023-04-21T09:40:05.012Z,2829.38
2023-04-21T09:41:01.652Z,2756.25
2023-04-21T09:42:01.632Z,2868.75
2023-04-21T09:43:02.075Z,3009.38
2023-04-21T09:44:02.058Z,2992.50
2023-04-21T09:45:29.014Z,3048.75
2023-04-21T09:46:02.715Z,3099.38
2023-04-21T09:47:01.589Z,3082.50
2023-04-21T09:48:01.619Z,3093.75
2023-04-21T09:49:01.540Z,3116.25
2023-04-21T09:50:01.546Z,3076.88
2023-04-21T09:51:25.438Z,3054.38
2023-04-21T09:53:01.497Z,2986.88
2023-04-21T09:54:01.476Z,3015.00
2023-04-21T09:55:01.462Z,3043.12
2023-04-21T09:56:01.457Z,3026.25
2023-04-21T09:57:01.477Z,2964.38
2023-04-21T09:58:01.431Z,3071.25
2023-04-21T09:59:01.417Z,3211.88
2023-04-21T10:00:01.431Z,3054.38
2023-04-21T10:01:01.409Z,2919.38
2023-04-21T10:02:01.658Z,2981.25
2023-04-21T10:03:01.462Z,3065.62
2023-04-21T10:04:01.563Z,3076.88
2023-04-21T10:05:01.547Z,3088.12
2023-04-21T10:06:01.379Z,3037.50
2023-04-21T10:07:01.313Z,3088.12
2023-04-21T10:08:01.302Z,3133.12
2023-04-21T10:09:01.278Z,3071.25
2023-04-21T10:10:01.312Z,3020.62
2023-04-21T10:11:01.276Z,3065.62
2023-04-21T10:12:01.266Z,3127.50
2023-04-21T10:13:01.256Z,3189.38
2023-04-21T10:14:01.259Z,3245.62
2023-04-21T10:15:01.215Z,3217.50
2023-04-21T10:16:01.303Z,3099.38
2023-04-21T10:17:01.179Z,3031.88
2023-04-21T10:18:01.245Z,3121.88
2023-04-21T10:19:01.153Z,3121.88
2023-04-21T10:20:01.145Z,3003.75
2023-04-21T10:21:01.131Z,2958.75
2023-04-21T10:22:01.115Z,2981.25
2023-04-21T10:23:01.110Z,2908.12
2023-04-21T10:24:01.107Z,2851.88
2023-04-21T10:25:01.111Z,2919.38
2023-04-21T10:26:01.075Z,3009.38
2023-04-21T10:27:01.069Z,3015.00
2023-04-21T10:28:01.077Z,3015.00
2023-04-21T10:29:01.056Z,3037.50
2023-04-21T10:30:01.028Z,3200.62
2023-04-21T10:31:01.007Z,3285.00
2023-04-21T10:32:01.091Z,3105.00
2023-04-21T10:33:01.030Z,2919.38
2023-04-21T10:34:00.965Z,2857.50
2023-04-21T10:35:00.954Z,2925.00
2023-04-21T10:36:00.966Z,3043.12
2023-04-21T10:37:00.987Z,3082.50
2023-04-21T10:38:00.918Z,3026.25
2023-04-21T10:39:00.919Z,3054.38
2023-04-21T10:40:00.911Z,3003.75
2023-04-21T10:41:00.885Z,2891.25
2023-04-21T10:42:00.872Z,3003.75
2023-04-21T10:43:00.863Z,3116.25
2023-04-21T10:44:00.847Z,3105.00
2023-04-21T10:45:00.834Z,3144.38
2023-04-21T10:46:00.815Z,3105.00
2023-04-21T10:47:00.921Z,2941.88
2023-04-21T10:48:00.855Z,2835.00
2023-04-21T10:49:00.787Z,2835.00
2023-04-21T10:50:01.131Z,2896.88
2023-04-21T10:51:00.765Z,2896.88
2023-04-21T10:52:00.789Z,2925.00
2023-04-21T10:53:00.733Z,2857.50
2023-04-21T10:54:00.790Z,2761.88
2023-04-21T10:55:00.712Z,2835.00
2023-04-21T10:56:00.695Z,2981.25
2023-04-21T10:57:00.680Z,2947.50
2023-04-21T10:58:00.668Z,2857.50
2023-04-21T10:59:00.661Z,2806.88
2023-04-21T11:00:00.653Z,2851.88
2023-04-21T11:01:00.681Z,3003.75
2023-04-21T11:02:00.724Z,2795.62
2023-04-21T11:03:00.867Z,2345.62
2023-04-21T11:04:00.735Z,2520.00
2023-04-21T11:05:00.946Z,2486.25
2023-04-21T11:06:00.691Z,2581.88
2023-04-21T11:07:00.568Z,2739.38
2023-04-21T11:08:00.559Z,2739.38
2023-04-21T11:09:00.530Z,2728.12
2023-04-21T11:10:00.514Z,2638.12
2023-04-21T11:11:00.498Z,2818.12
2023-04-21T11:12:00.487Z,2761.88
2023-04-21T11:13:00.497Z,2801.25
2023-04-21T11:14:00.506Z,2683.12
2023-04-21T11:15:00.494Z,2913.75
2023-04-21T11:16:00.535Z,2975.62
2023-04-21T11:17:00.628Z,3093.75
2023-04-21T11:18:00.472Z,1839.38
2023-04-21T11:19:00.425Z,2975.62
2023-04-21T11:20:00.494Z,2925.00
2023-04-21T11:21:00.386Z,2311.88
2023-04-21T11:22:00.382Z,2728.12
2023-04-21T11:23:00.390Z,3037.50
2023-04-21T11:24:00.360Z,2953.12
2023-04-21T11:25:00.329Z,2368.12
2023-04-21T11:26:00.318Z,3031.88
2023-04-21T11:27:00.307Z,3093.75
2023-04-21T11:28:00.349Z,3121.88
2023-04-21T11:29:00.288Z,3273.75
2023-04-21T11:30:00.279Z,1968.75
2023-04-21T11:31:00.279Z,2323.12
2023-04-21T11:32:00.247Z,2508.75
2023-04-21T11:33:00.251Z,2480.62
2023-04-21T11:34:00.214Z,2705.62
2023-04-21T11:35:00.202Z,3065.62
2023-04-21T11:36:00.210Z,2868.75
2023-04-21T11:37:00.183Z,3330.00
2023-04-21T11:38:00.161Z,3352.50
2023-04-21T11:39:00.153Z,3352.50
2023-04-21T11:40:00.479Z,3380.62
2023-04-21T11:41:00.154Z,3318.75
2023-04-21T11:42:00.147Z,3195.00
2023-04-21T11:43:00.147Z,3026.25
2023-04-21T11:44:00.123Z,2964.38
2023-04-21T11:45:00.127Z,2716.88
2023-04-21T11:46:00.120Z,1597.50
2023-04-21T11:47:00.060Z,736.88
2023-04-21T11:48:00.076Z,607.50
2023-04-21T11:49:00.043Z,562.50
2023-04-21T11:50:00.033Z,534.38
2023-04-21T11:51:00.708Z,528.75
2023-04-21T11:52:00.024Z,517.50
2023-04-21T11:52:59.999Z,511.88
2023-04-21T11:53:59.983Z,511.88
2023-04-21T11:54:59.968Z,506.25
2023-04-21T11:55:59.957Z,506.25
2023-04-21T11:57:02.410Z,506.25
2023-04-21T11:57:59.922Z,517.50
2023-04-21T11:58:59.906Z,523.12
2023-04-21T11:59:59.919Z,579.38
2023-04-21T12:00:59.877Z,1012.50
2023-04-21T12:01:59.869Z,2362.50
2023-04-21T12:02:59.970Z,2812.50
2023-04-21T12:04:00.002Z,2722.50
2023-04-21T12:04:59.924Z,2660.62
2023-04-21T12:06:00.188Z,2660.62
2023-04-21T12:06:59.802Z,2671.88
2023-04-21T12:07:59.827Z,2711.25
2023-04-21T12:08:59.784Z,2739.38
2023-04-21T12:09:59.783Z,2728.12
2023-04-21T12:10:59.749Z,2666.25
2023-04-21T12:11:59.754Z,2632.50
2023-04-21T12:12:59.729Z,2666.25
2023-04-21T12:13:59.716Z,2739.38
2023-04-21T12:14:59.701Z,2593.12
2023-04-21T12:15:59.748Z,2649.38
2023-04-21T12:16:59.704Z,2767.50
2023-04-21T12:17:59.730Z,2666.25
2023-04-21T12:18:59.648Z,2570.62
2023-04-21T12:19:59.639Z,2643.75
2023-04-21T12:20:59.625Z,2683.12
2023-04-21T12:21:59.606Z,2643.75
2023-04-21T12:22:59.607Z,2531.25
2023-04-21T12:23:59.606Z,2503.12
2023-04-21T12:24:59.573Z,2615.62
2023-04-21T12:25:59.576Z,2660.62
2023-04-21T12:26:59.554Z,2666.25
2023-04-21T12:27:59.544Z,2700.00
2023-04-21T12:28:59.518Z,2722.50
2023-04-21T12:29:59.516Z,2553.75
2023-04-21T12:30:59.500Z,2418.75
2023-04-21T12:31:59.735Z,2413.12
2023-04-21T12:32:59.733Z,2430.00
2023-04-21T12:33:59.528Z,2430.00
2023-04-21T12:34:59.453Z,2475.00
2023-04-21T12:35:59.490Z,2441.25
2023-04-21T12:36:59.425Z,2463.75
2023-04-21T12:37:59.426Z,2199.38
2023-04-21T12:38:59.403Z,1023.75
2023-04-21T12:39:59.414Z,551.25
2023-04-21T12:40:59.374Z,489.38
2023-04-21T12:41:59.373Z,461.25
2023-04-21T12:42:59.346Z,455.62
2023-04-21T12:43:59.333Z,450.00
2023-04-21T12:44:59.308Z,455.62